Hlavní strana
METAR-TAF:

METAR-TAF

Letiště :

Pago Pago, Menší odlehlé ostrovy Spojených států amerických

zeměpisná šířka: 14-20S, zeměpisná délka: 170-43W, výška: 3 m

Aktuální stav počasí

Zpráva byla vytvořena před 45 minutami, v 13:50 UTC
Východní vítr 7 kt
Teplota 27°C
Vlhkost vzduchu 84%
Tlak 1013 hPa
Viditelnost: 16.1 km
Polojasno ve výšce 1800 ft
Polojasno ve výšce 10000 ft

METAR: NSTU 241350Z 10007KT 10SM SCT018 SCT100 27/24 A2990 RMK SLP124 T02680236

Čas: 03:35 (14:35 UTC)

Předpověď počasí

Zpráva byla vytvořena před 3 hodinami a 15 minutami, v 11:20 UTC
Předpověď platná od 24 v 12 UTC do 25 v 12 UTC
vítr z různých směrů 5 kt
Viditelnost: 10 km
Polojasno ve výšce 1900 ft
Polojasno ve výšce 4000 ft
Polojasno ve výšce 10000 ft
přeháňky v blízkosti

TAF: NSTU 241120Z 2412/2512 VRB05KT P6SM VCSH SCT019 SCT040 SCT100

Stav a předpovědi počasí z více než 4 000 letišť (zprávy METAR a TAF).

Červené a žluté tečky na mapě představují dostupné meteorologické stanice.

Když kurzor umístíte na tečku, zobrazí se název stanice.

Pak kliknutím zobrazíte stav a předpověď počasí.

Chcete-li změnit mapu, kliknutím na zelené tlačítko se znaménkem +mapu přiblížíte, kliknutím na zelené tlačítko se znaménkem – mapu oddálíte a kliknutím na zelené šipky přejdete na sousední mapy.


METAR-TAF: